Observations for PANTELLERIA IT-AFB, Italy (LICG)

LICG 181450Z 05011KT CAVOK 18/09 Q1019  
LICG 181350Z 16005KT CAVOK 19/07 Q1020  
LICG 181250Z 16014KT CAVOK 18/09 Q1020  
LICG 181050Z 17011KT 9999 FEW010 17/12 Q1020
LICG 180950Z 17013KT 9999 FEW010 17/12 Q1020
LICG 180850Z VRB09KT 9999 FEW010 17/12 Q1020
LICG 180750Z 09006KT 320V220 9999 FEW010 16/12 Q1020
LICG 180650Z 12003KT 090V160 9999 FEW007 15/11 Q1020
LICG 180550Z 17003KT 110V200 9999 FEW007 12/11 Q1020
LICG 180450Z VRB01KT CAVOK 09/08 Q1019  
LICG 171750Z 02003KT CAVOK 14/11 Q1019  
LICG 171650Z 36003KT 9999 SCT020 15/12 Q1019
LICG 171550Z 24004KT 9999 SCT020 16/13 Q1019
LICG 171450Z 03006KT 360V060 9999 FEW025 16/11 Q1019